SHT24B EGJB-EGLL
Flight info
| Callsign | SHT24B |
|---|---|
| Flight time | N/A |
| Altitude | 19000 |
| Route | ORIST L982 ROXOG |
| Aircraft | A319/M-SDE3FGHIRWY/LB1 |
Departure
| Time | 2026-04-28 19:07 |
|---|---|
| Airport | Guernsey Airport (EGJB) |
Arrival
| Time | N/A |
|---|---|
| Airport | London Heathrow Airport (EGLL) |
| Time | Latitude | Longitude | Altitude | Speed | Heading |
|---|---|---|---|---|---|
| 2026-04-28 18:41 | 49.43260 | -2.59682 | 338 ft | 0 kts | 177° |
| 2026-04-28 19:00 | 49.43262 | -2.59682 | 340 ft | 2 kts | 177° |
| 2026-04-28 19:01 | 49.43287 | -2.59683 | 340 ft | 4 kts | 179° |
| 2026-04-28 19:01 | 49.43314 | -2.59683 | 340 ft | 4 kts | 184° |
| 2026-04-28 19:01 | 49.43341 | -2.59677 | 334 ft | 4 kts | 201° |
| 2026-04-28 19:01 | 49.43359 | -2.59658 | 334 ft | 3 kts | 262° |
| 2026-04-28 19:02 | 49.43360 | -2.59652 | 334 ft | 0 kts | 271° |
| 2026-04-28 19:04 | 49.43360 | -2.59655 | 334 ft | 2 kts | 271° |
| 2026-04-28 19:04 | 49.43350 | -2.59757 | 336 ft | 15 kts | 254° |
| 2026-04-28 19:04 | 49.43343 | -2.59934 | 340 ft | 19 kts | 268° |
| 2026-04-28 19:04 | 49.43336 | -2.60145 | 340 ft | 19 kts | 268° |
| 2026-04-28 19:05 | 49.43331 | -2.60363 | 340 ft | 18 kts | 268° |
| 2026-04-28 19:05 | 49.43325 | -2.60561 | 337 ft | 16 kts | 268° |
| 2026-04-28 19:05 | 49.43342 | -2.60736 | 338 ft | 18 kts | 280° |
| 2026-04-28 19:05 | 49.43365 | -2.60946 | 340 ft | 20 kts | 274° |
| 2026-04-28 19:06 | 49.43360 | -2.61128 | 340 ft | 17 kts | 267° |
| 2026-04-28 19:06 | 49.43360 | -2.61242 | 340 ft | 14 kts | 282° |
| 2026-04-28 19:06 | 49.43452 | -2.61347 | 346 ft | 12 kts | 22° |
| 2026-04-28 19:06 | 49.43469 | -2.61219 | 351 ft | 8 kts | 86° |
| 2026-04-28 19:07 | 49.43470 | -2.61209 | 349 ft | 2 kts | 86° |
| 2026-04-28 19:07 | 49.43481 | -2.60854 | 348 ft | 74 kts | 87° |
| 2026-04-28 19:07 | 49.43510 | -2.59650 | 420 ft | 139 kts | 82° |
| 2026-04-28 19:07 | 49.43532 | -2.58168 | 1213 ft | 136 kts | 82° |
| 2026-04-28 19:08 | 49.43555 | -2.56716 | 1906 ft | 144 kts | 80° |
| 2026-04-28 19:08 | 49.43613 | -2.55038 | 2435 ft | 170 kts | 82° |
| 2026-04-28 19:08 | 49.43679 | -2.53149 | 3298 ft | 182 kts | 84° |
| 2026-04-28 19:08 | 49.43797 | -2.51141 | 4079 ft | 193 kts | 73° |
| 2026-04-28 19:09 | 49.44467 | -2.49357 | 5172 ft | 199 kts | 47° |
| 2026-04-28 19:09 | 49.45684 | -2.48305 | 6172 ft | 213 kts | 21° |
| 2026-04-28 19:09 | 49.47138 | -2.47755 | 7206 ft | 217 kts | 18° |
| 2026-04-28 19:09 | 49.48629 | -2.47200 | 8135 ft | 229 kts | 19° |
| 2026-04-28 19:10 | 49.50260 | -2.46582 | 8759 ft | 254 kts | 18° |
| 2026-04-28 19:10 | 49.52039 | -2.45906 | 9553 ft | 270 kts | 18° |
| 2026-04-28 19:10 | 49.53889 | -2.45211 | 10529 ft | 277 kts | 18° |
| 2026-04-28 19:10 | 49.55782 | -2.44496 | 11517 ft | 282 kts | 18° |
| 2026-04-28 19:11 | 49.57704 | -2.43768 | 12504 ft | 287 kts | 18° |
| 2026-04-28 19:11 | 49.59659 | -2.43029 | 13522 ft | 291 kts | 18° |
| 2026-04-28 19:11 | 49.61641 | -2.42278 | 14443 ft | 296 kts | 18° |
| 2026-04-28 19:11 | 49.63656 | -2.41507 | 15325 ft | 300 kts | 18° |
| 2026-04-28 19:12 | 49.65696 | -2.40728 | 16187 ft | 305 kts | 18° |
| 2026-04-28 19:12 | 49.67769 | -2.39916 | 17055 ft | 309 kts | 20° |
| 2026-04-28 19:12 | 49.69738 | -2.38604 | 17901 ft | 309 kts | 34° |
| 2026-04-28 19:12 | 49.71497 | -2.36615 | 18435 ft | 322 kts | 46° |
| 2026-04-28 19:13 | 49.73038 | -2.33968 | 18673 ft | 340 kts | 53° |
| 2026-04-28 19:13 | 49.74573 | -2.31137 | 19078 ft | 346 kts | 53° |
| 2026-04-28 19:13 | 49.76128 | -2.28290 | 19175 ft | 347 kts | 52° |
| 2026-04-28 19:13 | 49.77689 | -2.25445 | 19188 ft | 347 kts | 53° |
| 2026-04-28 19:14 | 49.79260 | -2.22585 | 19192 ft | 350 kts | 52° |
| 2026-04-28 19:14 | 49.80842 | -2.19704 | 19193 ft | 352 kts | 52° |
| 2026-04-28 19:14 | 49.82427 | -2.16819 | 19193 ft | 351 kts | 52° |
| 2026-04-28 19:14 | 49.84011 | -2.13936 | 19191 ft | 352 kts | 52° |
| 2026-04-28 19:15 | 49.85595 | -2.11047 | 19190 ft | 351 kts | 53° |
| 2026-04-28 19:15 | 49.87175 | -2.08154 | 19194 ft | 352 kts | 52° |
| 2026-04-28 19:15 | 49.88750 | -2.05256 | 19194 ft | 352 kts | 53° |
| 2026-04-28 19:15 | 49.89793 | -2.03332 | 19195 ft | 351 kts | 52° |
| 2026-04-28 19:16 | 49.91903 | -1.99456 | 19191 ft | 352 kts | 52° |
| 2026-04-28 19:16 | 49.93480 | -1.96562 | 19192 ft | 352 kts | 52° |
| 2026-04-28 19:16 | 49.95056 | -1.93659 | 19191 ft | 352 kts | 53° |
| 2026-04-28 19:16 | 49.96629 | -1.90750 | 19184 ft | 351 kts | 53° |
| 2026-04-28 19:17 | 49.98194 | -1.87857 | 19201 ft | 350 kts | 53° |
| 2026-04-28 19:17 | 49.99872 | -1.85183 | 19203 ft | 352 kts | 44° |
| 2026-04-28 19:17 | 50.01895 | -1.83016 | 19199 ft | 356 kts | 33° |
| 2026-04-28 19:17 | 50.04107 | -1.81252 | 19189 ft | 357 kts | 31° |
| 2026-04-28 19:18 | 50.06327 | -1.79503 | 19190 ft | 358 kts | 31° |
| 2026-04-28 19:18 | 50.08545 | -1.77752 | 19183 ft | 358 kts | 31° |
| 2026-04-28 19:18 | 50.10765 | -1.75994 | 19179 ft | 358 kts | 31° |
| 2026-04-28 19:18 | 50.12887 | -1.74014 | 19180 ft | 354 kts | 40° |
| 2026-04-28 19:19 | 50.14784 | -1.71593 | 19186 ft | 352 kts | 44° |
| 2026-04-28 19:19 | 50.16667 | -1.69144 | 19188 ft | 352 kts | 43° |
| 2026-04-28 19:19 | 50.18554 | -1.66697 | 19175 ft | 353 kts | 44° |
| 2026-04-28 19:19 | 50.20440 | -1.64257 | 19178 ft | 352 kts | 44° |
| 2026-04-28 19:20 | 50.22324 | -1.61823 | 19192 ft | 351 kts | 44° |
| 2026-04-28 19:20 | 50.24205 | -1.59386 | 19202 ft | 351 kts | 44° |
| 2026-04-28 19:20 | 50.26161 | -1.57093 | 19204 ft | 355 kts | 36° |
| 2026-04-28 19:20 | 50.28397 | -1.55387 | 19206 ft | 361 kts | 25° |
| 2026-04-28 19:21 | 50.30801 | -1.54191 | 19208 ft | 363 kts | 22° |
| 2026-04-28 19:21 | 50.33213 | -1.53019 | 19210 ft | 363 kts | 22° |
| 2026-04-28 19:21 | 50.35618 | -1.51845 | 19211 ft | 363 kts | 22° |
| 2026-04-28 19:21 | 50.38025 | -1.50668 | 19211 ft | 362 kts | 22° |
| 2026-04-28 19:22 | 50.40436 | -1.49485 | 19211 ft | 362 kts | 22° |
| 2026-04-28 19:22 | 50.41246 | -1.49087 | 19198 ft | 362 kts | 23° |
| 2026-04-28 19:22 | 50.45233 | -1.47121 | 19210 ft | 361 kts | 23° |
| 2026-04-28 19:22 | 50.47625 | -1.45941 | 19216 ft | 361 kts | 23° |
| 2026-04-28 19:23 | 50.50021 | -1.44758 | 19217 ft | 360 kts | 23° |
| 2026-04-28 19:23 | 50.52412 | -1.43574 | 19222 ft | 360 kts | 24° |
| 2026-04-28 19:23 | 50.54712 | -1.42104 | 19223 ft | 354 kts | 33° |
| 2026-04-28 19:23 | 50.56869 | -1.40257 | 19228 ft | 353 kts | 34° |
| 2026-04-28 19:24 | 50.59022 | -1.38402 | 19213 ft | 353 kts | 34° |
| 2026-04-28 19:24 | 50.61182 | -1.36544 | 19211 ft | 354 kts | 34° |
| 2026-04-28 19:24 | 50.63346 | -1.34684 | 19209 ft | 355 kts | 34° |
| 2026-04-28 19:24 | 50.65516 | -1.32819 | 19193 ft | 355 kts | 35° |
| 2026-04-28 19:25 | 50.67679 | -1.30957 | 19221 ft | 354 kts | 35° |
| 2026-04-28 19:25 | 50.69834 | -1.29100 | 19238 ft | 353 kts | 35° |
| 2026-04-28 19:25 | 50.71985 | -1.27248 | 19240 ft | 351 kts | 35° |
| 2026-04-28 19:25 | 50.74124 | -1.25402 | 19204 ft | 347 kts | 35° |
| 2026-04-28 19:26 | 50.76212 | -1.23599 | 18960 ft | 338 kts | 36° |
| 2026-04-28 19:26 | 50.78219 | -1.21716 | 18723 ft | 333 kts | 38° |
| 2026-04-28 19:26 | 50.80162 | -1.19740 | 18479 ft | 332 kts | 39° |
| 2026-04-28 19:26 | 50.82063 | -1.17735 | 18079 ft | 326 kts | 40° |
| 2026-04-28 19:27 | 50.83933 | -1.15746 | 17597 ft | 321 kts | 40° |
| 2026-04-28 19:27 | 50.85777 | -1.13797 | 17120 ft | 317 kts | 40° |
| 2026-04-28 19:27 | 50.87604 | -1.11882 | 16627 ft | 314 kts | 39° |
| 2026-04-28 19:27 | 50.88806 | -1.10632 | 16321 ft | 311 kts | 39° |
| 2026-04-28 19:28 | 50.91215 | -1.08137 | 15694 ft | 307 kts | 39° |
| 2026-04-28 19:28 | 50.92397 | -1.06915 | 15388 ft | 306 kts | 39° |